sensor_id;sensor_type;location;lat;lon;timestamp;P1;durP1;ratioP1;P2;durP2;ratioP2
66966;SDS011;53900;51.468;-2.586;2022-12-07T00:00:26;12.48;;;5.47;;
66966;SDS011;53900;51.468;-2.586;2022-12-07T00:02:52;13.75;;;5.18;;
66966;SDS011;53900;51.468;-2.586;2022-12-07T00:05:17;11.35;;;5.18;;
66966;SDS011;53900;51.468;-2.586;2022-12-07T00:07:42;10.77;;;5.68;;
66966;SDS011;53900;51.468;-2.586;2022-12-07T00:10:07;15.93;;;5.28;;
66966;SDS011;53900;51.468;-2.586;2022-12-07T00:12:33;12.30;;;5.15;;
66966;SDS011;53900;51.468;-2.586;2022-12-07T00:14:58;14.50;;;5.05;;
66966;SDS011;53900;51.468;-2.586;2022-12-07T00:17:23;14.68;;;5.18;;
66966;SDS011;53900;51.468;-2.586;2022-12-07T00:19:49;11.50;;;5.13;;
66966;SDS011;53900;51.468;-2.586;2022-12-07T00:22:14;10.60;;;5.00;;
66966;SDS011;53900;51.468;-2.586;2022-12-07T00:24:39;14.00;;;4.95;;
66966;SDS011;53900;51.468;-2.586;2022-12-07T00:27:05;12.02;;;4.82;;
66966;SDS011;53900;51.468;-2.586;2022-12-07T00:29:30;10.57;;;5.65;;
66966;SDS011;53900;51.468;-2.586;2022-12-07T00:31:55;13.77;;;5.00;;
66966;SDS011;53900;51.468;-2.586;2022-12-07T00:34:21;14.40;;;4.75;;
66966;SDS011;53900;51.468;-2.586;2022-12-07T00:36:46;10.45;;;5.55;;
66966;SDS011;53900;51.468;-2.586;2022-12-07T00:39:12;10.93;;;4.95;;
66966;SDS011;53900;51.468;-2.586;2022-12-07T00:41:37;8.50;;;4.75;;
66966;SDS011;53900;51.468;-2.586;2022-12-07T00:44:03;9.90;;;5.05;;
66966;SDS011;53900;51.468;-2.586;2022-12-07T00:46:28;12.27;;;4.93;;
66966;SDS011;53900;51.468;-2.586;2022-12-07T00:48:54;12.60;;;5.20;;
66966;SDS011;53900;51.468;-2.586;2022-12-07T00:51:21;9.23;;;4.63;;
66966;SDS011;53900;51.468;-2.586;2022-12-07T00:53:47;10.40;;;5.03;;
66966;SDS011;53900;51.468;-2.586;2022-12-07T00:56:17;11.52;;;4.47;;
66966;SDS011;53900;51.468;-2.586;2022-12-07T00:58:44;7.43;;;4.60;;
66966;SDS011;53900;51.468;-2.586;2022-12-07T01:01:15;10.65;;;4.95;;
66966;SDS011;53900;51.468;-2.586;2022-12-07T01:03:40;12.50;;;5.00;;
66966;SDS011;53900;51.468;-2.586;2022-12-07T01:06:05;11.73;;;5.40;;
66966;SDS011;53900;51.468;-2.586;2022-12-07T01:08:31;9.30;;;5.45;;
66966;SDS011;53900;51.468;-2.586;2022-12-07T01:11:00;10.90;;;5.40;;
66966;SDS011;53900;51.468;-2.586;2022-12-07T01:13:30;11.52;;;5.90;;
66966;SDS011;53900;51.468;-2.586;2022-12-07T01:15:59;11.68;;;5.65;;
66966;SDS011;53900;51.468;-2.586;2022-12-07T01:18:29;10.48;;;5.30;;
66966;SDS011;53900;51.468;-2.586;2022-12-07T01:20:59;10.95;;;5.38;;
66966;SDS011;53900;51.468;-2.586;2022-12-07T01:23:25;9.65;;;5.55;;
66966;SDS011;53900;51.468;-2.586;2022-12-07T01:25:54;13.07;;;5.85;;
66966;SDS011;53900;51.468;-2.586;2022-12-07T01:28:21;9.52;;;5.07;;
66966;SDS011;53900;51.468;-2.586;2022-12-07T01:30:54;11.30;;;5.05;;
66966;SDS011;53900;51.468;-2.586;2022-12-07T01:33:30;9.73;;;5.28;;
66966;SDS011;53900;51.468;-2.586;2022-12-07T01:38:38;10.60;;;5.55;;
66966;SDS011;53900;51.468;-2.586;2022-12-07T01:41:04;16.60;;;6.50;;
66966;SDS011;53900;51.468;-2.586;2022-12-07T01:43:30;12.48;;;5.78;;
66966;SDS011;53900;51.468;-2.586;2022-12-07T01:45:57;10.90;;;5.40;;
66966;SDS011;53900;51.468;-2.586;2022-12-07T01:48:32;14.65;;;6.07;;
66966;SDS011;53900;51.468;-2.586;2022-12-07T01:51:02;11.55;;;5.88;;
66966;SDS011;53900;51.468;-2.586;2022-12-07T01:53:30;14.43;;;6.22;;
66966;SDS011;53900;51.468;-2.586;2022-12-07T01:55:57;11.35;;;5.80;;
66966;SDS011;53900;51.468;-2.586;2022-12-07T01:58:23;13.25;;;6.38;;
66966;SDS011;53900;51.468;-2.586;2022-12-07T02:00:49;12.15;;;5.57;;
66966;SDS011;53900;51.468;-2.586;2022-12-07T02:03:16;8.30;;;5.63;;
66966;SDS011;53900;51.468;-2.586;2022-12-07T02:05:44;12.18;;;5.80;;
66966;SDS011;53900;51.468;-2.586;2022-12-07T02:08:10;11.77;;;5.97;;
66966;SDS011;53900;51.468;-2.586;2022-12-07T02:10:35;11.55;;;5.70;;
66966;SDS011;53900;51.468;-2.586;2022-12-07T02:13:06;14.32;;;6.03;;
66966;SDS011;53900;51.468;-2.586;2022-12-07T02:15:45;11.05;;;5.63;;
66966;SDS011;53900;51.468;-2.586;2022-12-07T02:18:19;11.07;;;4.93;;
66966;SDS011;53900;51.468;-2.586;2022-12-07T02:29:13;12.70;;;5.47;;
66966;SDS011;53900;51.468;-2.586;2022-12-07T02:31:42;11.00;;;5.60;;
66966;SDS011;53900;51.468;-2.586;2022-12-07T02:34:21;13.27;;;5.80;;
66966;SDS011;53900;51.468;-2.586;2022-12-07T02:37:02;14.27;;;5.63;;
66966;SDS011;53900;51.468;-2.586;2022-12-07T02:39:34;13.98;;;6.00;;
66966;SDS011;53900;51.468;-2.586;2022-12-07T02:42:12;11.35;;;5.47;;
66966;SDS011;53900;51.468;-2.586;2022-12-07T02:44:40;13.93;;;5.10;;
66966;SDS011;53900;51.468;-2.586;2022-12-07T02:47:07;8.25;;;4.88;;
66966;SDS011;53900;51.468;-2.586;2022-12-07T02:49:35;14.70;;;5.22;;
66966;SDS011;53900;51.468;-2.586;2022-12-07T02:52:01;15.13;;;5.28;;
66966;SDS011;53900;51.468;-2.586;2022-12-07T02:54:27;11.95;;;4.78;;
66966;SDS011;53900;51.468;-2.586;2022-12-07T03:00:16;12.23;;;5.38;;
66966;SDS011;53900;51.468;-2.586;2022-12-07T03:11:10;11.70;;;5.07;;
66966;SDS011;53900;51.468;-2.586;2022-12-07T03:13:59;10.90;;;4.57;;
66966;SDS011;53900;51.468;-2.586;2022-12-07T03:16:33;10.87;;;5.20;;
66966;SDS011;53900;51.468;-2.586;2022-12-07T03:19:03;11.93;;;4.72;;
66966;SDS011;53900;51.468;-2.586;2022-12-07T03:23:59;7.27;;;4.30;;
66966;SDS011;53900;51.468;-2.586;2022-12-07T03:26:30;10.88;;;4.57;;
66966;SDS011;53900;51.468;-2.586;2022-12-07T03:28:58;10.87;;;4.90;;
66966;SDS011;53900;51.468;-2.586;2022-12-07T03:31:31;7.83;;;4.63;;
66966;SDS011;53900;51.468;-2.586;2022-12-07T03:34:13;9.65;;;4.63;;
66966;SDS011;53900;51.468;-2.586;2022-12-07T03:36:47;7.73;;;4.37;;
66966;SDS011;53900;51.468;-2.586;2022-12-07T03:39:24;14.53;;;5.57;;
66966;SDS011;53900;51.468;-2.586;2022-12-07T03:41:50;14.50;;;4.73;;
66966;SDS011;53900;51.468;-2.586;2022-12-07T03:44:16;10.53;;;4.50;;
66966;SDS011;53900;51.468;-2.586;2022-12-07T03:46:43;10.07;;;4.43;;
66966;SDS011;53900;51.468;-2.586;2022-12-07T03:49:28;10.80;;;4.70;;
66966;SDS011;53900;51.468;-2.586;2022-12-07T03:54:39;12.87;;;4.80;;
66966;SDS011;53900;51.468;-2.586;2022-12-07T03:57:07;16.17;;;5.32;;
66966;SDS011;53900;51.468;-2.586;2022-12-07T03:59:33;8.53;;;4.40;;
66966;SDS011;53900;51.468;-2.586;2022-12-07T04:02:03;13.40;;;4.90;;
66966;SDS011;53900;51.468;-2.586;2022-12-07T04:04:29;11.53;;;4.37;;
66966;SDS011;53900;51.468;-2.586;2022-12-07T04:06:55;13.17;;;5.20;;
66966;SDS011;53900;51.468;-2.586;2022-12-07T04:09:20;11.13;;;4.67;;
66966;SDS011;53900;51.468;-2.586;2022-12-07T04:11:46;8.33;;;4.70;;
66966;SDS011;53900;51.468;-2.586;2022-12-07T04:14:12;8.67;;;4.30;;
66966;SDS011;53900;51.468;-2.586;2022-12-07T04:16:43;10.30;;;5.00;;
66966;SDS011;53900;51.468;-2.586;2022-12-07T04:19:09;9.43;;;5.30;;
66966;SDS011;53900;51.468;-2.586;2022-12-07T04:21:35;13.63;;;4.88;;
66966;SDS011;53900;51.468;-2.586;2022-12-07T04:24:00;12.03;;;5.00;;
66966;SDS011;53900;51.468;-2.586;2022-12-07T04:26:25;13.88;;;4.55;;
66966;SDS011;53900;51.468;-2.586;2022-12-07T04:28:51;10.43;;;4.73;;
66966;SDS011;53900;51.468;-2.586;2022-12-07T04:31:16;8.17;;;4.17;;
66966;SDS011;53900;51.468;-2.586;2022-12-07T04:33:42;12.90;;;4.90;;
66966;SDS011;53900;51.468;-2.586;2022-12-07T04:36:07;13.30;;;5.03;;
66966;SDS011;53900;51.468;-2.586;2022-12-07T04:38:32;8.20;;;4.77;;
66966;SDS011;53900;51.468;-2.586;2022-12-07T04:40:58;10.77;;;4.53;;
66966;SDS011;53900;51.468;-2.586;2022-12-07T04:43:23;13.10;;;5.30;;
66966;SDS011;53900;51.468;-2.586;2022-12-07T04:45:48;12.47;;;5.10;;
66966;SDS011;53900;51.468;-2.586;2022-12-07T04:48:14;9.30;;;4.90;;
66966;SDS011;53900;51.468;-2.586;2022-12-07T04:50:40;10.70;;;4.90;;
66966;SDS011;53900;51.468;-2.586;2022-12-07T04:53:05;14.07;;;5.03;;
66966;SDS011;53900;51.468;-2.586;2022-12-07T04:55:30;13.37;;;5.20;;
66966;SDS011;53900;51.468;-2.586;2022-12-07T04:57:56;12.83;;;5.63;;
66966;SDS011;53900;51.468;-2.586;2022-12-07T05:00:21;9.67;;;5.07;;
66966;SDS011;53900;51.468;-2.586;2022-12-07T05:02:47;9.43;;;4.43;;
66966;SDS011;53900;51.468;-2.586;2022-12-07T05:05:12;9.93;;;5.20;;
66966;SDS011;53900;51.468;-2.586;2022-12-07T05:07:37;12.60;;;5.07;;
66966;SDS011;53900;51.468;-2.586;2022-12-07T05:10:03;10.40;;;5.67;;
66966;SDS011;53900;51.468;-2.586;2022-12-07T05:12:28;6.30;;;4.60;;
66966;SDS011;53900;51.468;-2.586;2022-12-07T05:14:54;15.47;;;5.33;;
66966;SDS011;53900;51.468;-2.586;2022-12-07T05:17:19;10.37;;;5.07;;
66966;SDS011;53900;51.468;-2.586;2022-12-07T05:19:44;14.30;;;5.43;;
66966;SDS011;53900;51.468;-2.586;2022-12-07T05:22:10;14.63;;;6.20;;
66966;SDS011;53900;51.468;-2.586;2022-12-07T05:24:35;14.30;;;5.27;;
66966;SDS011;53900;51.468;-2.586;2022-12-07T05:27:01;11.30;;;5.43;;
66966;SDS011;53900;51.468;-2.586;2022-12-07T05:29:26;11.50;;;5.80;;
66966;SDS011;53900;51.468;-2.586;2022-12-07T05:31:51;14.03;;;5.30;;
66966;SDS011;53900;51.468;-2.586;2022-12-07T05:34:17;10.97;;;5.70;;
66966;SDS011;53900;51.468;-2.586;2022-12-07T05:36:42;10.77;;;5.47;;
66966;SDS011;53900;51.468;-2.586;2022-12-07T05:39:07;11.67;;;5.53;;
66966;SDS011;53900;51.468;-2.586;2022-12-07T05:41:33;11.00;;;5.00;;
66966;SDS011;53900;51.468;-2.586;2022-12-07T05:44:16;10.57;;;5.10;;
66966;SDS011;53900;51.468;-2.586;2022-12-07T05:46:42;10.47;;;5.50;;
66966;SDS011;53900;51.468;-2.586;2022-12-07T05:49:07;11.63;;;5.53;;
66966;SDS011;53900;51.468;-2.586;2022-12-07T05:51:32;11.20;;;6.03;;
66966;SDS011;53900;51.468;-2.586;2022-12-07T05:53:58;13.47;;;6.17;;
66966;SDS011;53900;51.468;-2.586;2022-12-07T05:56:23;11.60;;;5.77;;
66966;SDS011;53900;51.468;-2.586;2022-12-07T05:58:49;11.87;;;5.50;;
66966;SDS011;53900;51.468;-2.586;2022-12-07T06:01:33;14.67;;;6.30;;
66966;SDS011;53900;51.468;-2.586;2022-12-07T06:03:58;11.93;;;6.10;;
66966;SDS011;53900;51.468;-2.586;2022-12-07T06:06:24;15.03;;;5.87;;
66966;SDS011;53900;51.468;-2.586;2022-12-07T06:08:49;13.57;;;5.77;;
66966;SDS011;53900;51.468;-2.586;2022-12-07T06:11:14;11.80;;;5.80;;
66966;SDS011;53900;51.468;-2.586;2022-12-07T06:13:58;14.47;;;5.93;;
66966;SDS011;53900;51.468;-2.586;2022-12-07T06:16:23;12.67;;;6.13;;
66966;SDS011;53900;51.468;-2.586;2022-12-07T06:18:49;9.43;;;5.90;;
66966;SDS011;53900;51.468;-2.586;2022-12-07T06:21:14;16.37;;;5.80;;
66966;SDS011;53900;51.468;-2.586;2022-12-07T06:23:39;20.30;;;6.03;;
66966;SDS011;53900;51.468;-2.586;2022-12-07T06:26:05;13.33;;;6.30;;
66966;SDS011;53900;51.468;-2.586;2022-12-07T06:28:30;12.37;;;5.73;;
66966;SDS011;53900;51.468;-2.586;2022-12-07T06:30:59;14.43;;;5.70;;
66966;SDS011;53900;51.468;-2.586;2022-12-07T06:33:25;16.60;;;5.93;;
66966;SDS011;53900;51.468;-2.586;2022-12-07T06:35:51;10.67;;;5.87;;
66966;SDS011;53900;51.468;-2.586;2022-12-07T06:38:16;13.00;;;6.03;;
66966;SDS011;53900;51.468;-2.586;2022-12-07T06:40:42;17.13;;;6.03;;
66966;SDS011;53900;51.468;-2.586;2022-12-07T06:43:07;15.53;;;5.97;;
66966;SDS011;53900;51.468;-2.586;2022-12-07T06:45:32;18.13;;;5.90;;
66966;SDS011;53900;51.468;-2.586;2022-12-07T06:47:58;11.37;;;5.57;;
66966;SDS011;53900;51.468;-2.586;2022-12-07T06:50:23;12.97;;;5.97;;
66966;SDS011;53900;51.468;-2.586;2022-12-07T06:52:48;16.23;;;5.73;;
66966;SDS011;53900;51.468;-2.586;2022-12-07T06:55:16;14.47;;;7.53;;
66966;SDS011;53900;51.468;-2.586;2022-12-07T06:57:41;13.40;;;7.27;;
66966;SDS011;53900;51.468;-2.586;2022-12-07T07:00:06;10.87;;;5.73;;
66966;SDS011;53900;51.468;-2.586;2022-12-07T07:02:32;14.60;;;6.40;;
66966;SDS011;53900;51.468;-2.586;2022-12-07T07:04:57;11.47;;;6.10;;
66966;SDS011;53900;51.468;-2.586;2022-12-07T07:07:23;16.10;;;6.50;;
66966;SDS011;53900;51.468;-2.586;2022-12-07T07:09:48;12.63;;;6.67;;
66966;SDS011;53900;51.468;-2.586;2022-12-07T07:12:13;13.57;;;5.93;;
66966;SDS011;53900;51.468;-2.586;2022-12-07T07:14:39;12.53;;;6.20;;
66966;SDS011;53900;51.468;-2.586;2022-12-07T07:17:04;12.37;;;5.87;;
66966;SDS011;53900;51.468;-2.586;2022-12-07T07:19:29;9.83;;;5.33;;
66966;SDS011;53900;51.468;-2.586;2022-12-07T07:21:55;14.27;;;5.77;;
66966;SDS011;53900;51.468;-2.586;2022-12-07T07:24:20;8.90;;;5.67;;
66966;SDS011;53900;51.468;-2.586;2022-12-07T07:26:45;11.60;;;5.80;;
66966;SDS011;53900;51.468;-2.586;2022-12-07T07:29:11;12.60;;;6.20;;
66966;SDS011;53900;51.468;-2.586;2022-12-07T07:31:36;17.70;;;6.87;;
66966;SDS011;53900;51.468;-2.586;2022-12-07T07:34:02;13.67;;;6.93;;
66966;SDS011;53900;51.468;-2.586;2022-12-07T07:36:27;27.47;;;16.60;;
66966;SDS011;53900;51.468;-2.586;2022-12-07T07:38:52;17.37;;;11.10;;
66966;SDS011;53900;51.468;-2.586;2022-12-07T07:41:18;15.00;;;8.00;;
66966;SDS011;53900;51.468;-2.586;2022-12-07T07:43:43;17.57;;;8.30;;
66966;SDS011;53900;51.468;-2.586;2022-12-07T07:46:08;24.17;;;10.33;;
66966;SDS011;53900;51.468;-2.586;2022-12-07T07:48:34;25.20;;;12.50;;
66966;SDS011;53900;51.468;-2.586;2022-12-07T07:50:59;16.53;;;9.93;;
66966;SDS011;53900;51.468;-2.586;2022-12-07T07:53:25;19.60;;;9.73;;
66966;SDS011;53900;51.468;-2.586;2022-12-07T07:55:54;30.10;;;11.47;;
66966;SDS011;53900;51.468;-2.586;2022-12-07T07:58:19;31.48;;;14.52;;
66966;SDS011;53900;51.468;-2.586;2022-12-07T08:00:45;29.27;;;14.90;;
66966;SDS011;53900;51.468;-2.586;2022-12-07T08:03:11;39.07;;;16.17;;
66966;SDS011;53900;51.468;-2.586;2022-12-07T08:05:36;27.93;;;13.73;;
66966;SDS011;53900;51.468;-2.586;2022-12-07T08:08:02;30.67;;;12.20;;
66966;SDS011;53900;51.468;-2.586;2022-12-07T08:10:28;24.70;;;12.40;;
66966;SDS011;53900;51.468;-2.586;2022-12-07T08:12:53;26.80;;;10.60;;
66966;SDS011;53900;51.468;-2.586;2022-12-07T08:15:38;22.63;;;11.37;;
66966;SDS011;53900;51.468;-2.586;2022-12-07T08:18:05;20.10;;;9.37;;
66966;SDS011;53900;51.468;-2.586;2022-12-07T08:20:31;16.77;;;8.10;;
66966;SDS011;53900;51.468;-2.586;2022-12-07T08:22:57;14.87;;;8.23;;
66966;SDS011;53900;51.468;-2.586;2022-12-07T08:25:22;13.67;;;7.23;;
66966;SDS011;53900;51.468;-2.586;2022-12-07T08:27:48;18.90;;;8.07;;
66966;SDS011;53900;51.468;-2.586;2022-12-07T08:30:14;14.53;;;7.50;;
66966;SDS011;53900;51.468;-2.586;2022-12-07T08:32:39;16.50;;;7.90;;
66966;SDS011;53900;51.468;-2.586;2022-12-07T08:35:05;36.43;;;7.90;;
66966;SDS011;53900;51.468;-2.586;2022-12-07T08:37:31;16.80;;;7.40;;
66966;SDS011;53900;51.468;-2.586;2022-12-07T08:39:56;19.73;;;6.87;;
66966;SDS011;53900;51.468;-2.586;2022-12-07T08:42:22;18.67;;;9.00;;
66966;SDS011;53900;51.468;-2.586;2022-12-07T08:44:52;19.53;;;9.50;;
66966;SDS011;53900;51.468;-2.586;2022-12-07T08:47:17;19.90;;;8.30;;
66966;SDS011;53900;51.468;-2.586;2022-12-07T08:49:44;15.30;;;7.93;;
66966;SDS011;53900;51.468;-2.586;2022-12-07T08:52:11;11.80;;;6.63;;
66966;SDS011;53900;51.468;-2.586;2022-12-07T08:54:37;15.07;;;6.57;;
66966;SDS011;53900;51.468;-2.586;2022-12-07T08:57:04;12.63;;;7.10;;
66966;SDS011;53900;51.468;-2.586;2022-12-07T08:59:31;13.00;;;7.43;;
66966;SDS011;53900;51.468;-2.586;2022-12-07T09:01:58;14.87;;;6.80;;
66966;SDS011;53900;51.468;-2.586;2022-12-07T09:04:23;15.80;;;7.07;;
66966;SDS011;53900;51.468;-2.586;2022-12-07T09:06:49;14.18;;;6.78;;
66966;SDS011;53900;51.468;-2.586;2022-12-07T09:09:14;17.73;;;7.13;;
66966;SDS011;53900;51.468;-2.586;2022-12-07T09:11:40;17.10;;;6.93;;
66966;SDS011;53900;51.468;-2.586;2022-12-07T09:14:05;17.20;;;7.22;;
66966;SDS011;53900;51.468;-2.586;2022-12-07T09:16:31;14.15;;;7.38;;
66966;SDS011;53900;51.468;-2.586;2022-12-07T09:18:56;15.03;;;8.10;;
66966;SDS011;53900;51.468;-2.586;2022-12-07T09:21:21;15.80;;;8.27;;
66966;SDS011;53900;51.468;-2.586;2022-12-07T09:23:47;18.38;;;7.88;;
66966;SDS011;53900;51.468;-2.586;2022-12-07T09:26:12;23.42;;;8.73;;
66966;SDS011;53900;51.468;-2.586;2022-12-07T09:28:38;19.98;;;7.75;;
66966;SDS011;53900;51.468;-2.586;2022-12-07T09:31:04;17.08;;;8.23;;
66966;SDS011;53900;51.468;-2.586;2022-12-07T09:33:29;15.00;;;7.68;;
66966;SDS011;53900;51.468;-2.586;2022-12-07T09:35:55;17.17;;;7.78;;
66966;SDS011;53900;51.468;-2.586;2022-12-07T09:38:20;17.23;;;7.43;;
66966;SDS011;53900;51.468;-2.586;2022-12-07T09:40:46;12.50;;;5.93;;
66966;SDS011;53900;51.468;-2.586;2022-12-07T09:43:21;11.02;;;5.90;;
66966;SDS011;53900;51.468;-2.586;2022-12-07T09:45:49;14.68;;;5.60;;
66966;SDS011;53900;51.468;-2.586;2022-12-07T09:48:19;21.58;;;9.20;;
66966;SDS011;53900;51.468;-2.586;2022-12-07T09:50:47;9.60;;;5.38;;
66966;SDS011;53900;51.468;-2.586;2022-12-07T09:53:14;11.55;;;6.25;;
66966;SDS011;53900;51.468;-2.586;2022-12-07T09:55:43;12.55;;;5.60;;
66966;SDS011;53900;51.468;-2.586;2022-12-07T09:58:17;11.68;;;5.45;;
66966;SDS011;53900;51.468;-2.586;2022-12-07T10:00:46;17.83;;;7.47;;
66966;SDS011;53900;51.468;-2.586;2022-12-07T10:03:11;18.50;;;8.00;;
66966;SDS011;53900;51.468;-2.586;2022-12-07T10:05:41;19.75;;;8.23;;
66966;SDS011;53900;51.468;-2.586;2022-12-07T10:08:11;18.08;;;8.10;;
66966;SDS011;53900;51.468;-2.586;2022-12-07T10:10:36;33.97;;;9.48;;
66966;SDS011;53900;51.468;-2.586;2022-12-07T10:13:07;16.25;;;8.25;;
66966;SDS011;53900;51.468;-2.586;2022-12-07T10:15:40;27.83;;;9.55;;
66966;SDS011;53900;51.468;-2.586;2022-12-07T10:18:17;16.95;;;8.25;;
66966;SDS011;53900;51.468;-2.586;2022-12-07T10:21:10;19.13;;;8.77;;
66966;SDS011;53900;51.468;-2.586;2022-12-07T10:23:38;13.73;;;7.15;;
66966;SDS011;53900;51.468;-2.586;2022-12-07T10:26:19;16.77;;;7.60;;
66966;SDS011;53900;51.468;-2.586;2022-12-07T10:28:58;12.75;;;5.93;;
66966;SDS011;53900;51.468;-2.586;2022-12-07T10:31:26;15.32;;;7.03;;
66966;SDS011;53900;51.468;-2.586;2022-12-07T10:33:52;15.70;;;7.13;;
66966;SDS011;53900;51.468;-2.586;2022-12-07T10:39:01;18.92;;;8.10;;
66966;SDS011;53900;51.468;-2.586;2022-12-07T10:41:52;19.27;;;8.55;;
66966;SDS011;53900;51.468;-2.586;2022-12-07T10:44:22;19.23;;;8.00;;
66966;SDS011;53900;51.468;-2.586;2022-12-07T10:50:02;19.45;;;7.95;;
66966;SDS011;53900;51.468;-2.586;2022-12-07T10:53:51;21.25;;;7.38;;
66966;SDS011;53900;51.468;-2.586;2022-12-07T11:09:48;12.60;;;5.45;;
66966;SDS011;53900;51.468;-2.586;2022-12-07T11:20:32;10.00;;;4.57;;
66966;SDS011;53900;51.468;-2.586;2022-12-07T11:26:57;12.57;;;5.07;;
66966;SDS011;53900;51.468;-2.586;2022-12-07T11:29:02;10.00;;;4.40;;
66966;SDS011;53900;51.468;-2.586;2022-12-07T11:37:02;9.43;;;3.78;;
66966;SDS011;53900;51.468;-2.586;2022-12-07T11:39:35;13.10;;;3.72;;
66966;SDS011;53900;51.468;-2.586;2022-12-07T11:42:12;8.55;;;3.28;;
66966;SDS011;53900;51.468;-2.586;2022-12-07T11:44:47;7.30;;;2.63;;
66966;SDS011;53900;51.468;-2.586;2022-12-07T11:50:21;10.90;;;2.90;;
66966;SDS011;53900;51.468;-2.586;2022-12-07T11:52:59;8.95;;;2.63;;
66966;SDS011;53900;51.468;-2.586;2022-12-07T11:55:47;10.15;;;3.15;;
66966;SDS011;53900;51.468;-2.586;2022-12-07T12:01:07;12.57;;;3.35;;
66966;SDS011;53900;51.468;-2.586;2022-12-07T12:03:34;12.23;;;3.95;;
66966;SDS011;53900;51.468;-2.586;2022-12-07T12:06:03;8.93;;;3.65;;
66966;SDS011;53900;51.468;-2.586;2022-12-07T12:08:30;8.82;;;3.97;;
66966;SDS011;53900;51.468;-2.586;2022-12-07T12:11:00;10.98;;;5.18;;
66966;SDS011;53900;51.468;-2.586;2022-12-07T12:13:43;10.02;;;4.15;;
66966;SDS011;53900;51.468;-2.586;2022-12-07T12:21:43;10.77;;;4.57;;
66966;SDS011;53900;51.468;-2.586;2022-12-07T12:24:12;12.80;;;5.25;;
66966;SDS011;53900;51.468;-2.586;2022-12-07T12:26:41;12.27;;;5.05;;
66966;SDS011;53900;51.468;-2.586;2022-12-07T12:29:22;16.38;;;4.72;;
66966;SDS011;53900;51.468;-2.586;2022-12-07T12:34:41;11.27;;;4.43;;
66966;SDS011;53900;51.468;-2.586;2022-12-07T12:42:44;11.30;;;4.30;;
66966;SDS011;53900;51.468;-2.586;2022-12-07T12:45:29;21.27;;;4.43;;
66966;SDS011;53900;51.468;-2.586;2022-12-07T12:51:35;17.88;;;4.03;;
66966;SDS011;53900;51.468;-2.586;2022-12-07T12:54:04;14.50;;;4.30;;
66966;SDS011;53900;51.468;-2.586;2022-12-07T12:56:35;12.70;;;3.88;;
66966;SDS011;53900;51.468;-2.586;2022-12-07T13:01:51;10.40;;;3.90;;
66966;SDS011;53900;51.468;-2.586;2022-12-07T13:04:24;12.55;;;4.07;;
66966;SDS011;53900;51.468;-2.586;2022-12-07T13:06:51;9.07;;;3.60;;
66966;SDS011;53900;51.468;-2.586;2022-12-07T13:09:27;9.30;;;3.53;;
66966;SDS011;53900;51.468;-2.586;2022-12-07T13:11:58;8.38;;;3.08;;
66966;SDS011;53900;51.468;-2.586;2022-12-07T13:20:02;9.13;;;3.85;;
66966;SDS011;53900;51.468;-2.586;2022-12-07T13:25:07;10.45;;;3.88;;
66966;SDS011;53900;51.468;-2.586;2022-12-07T13:27:39;11.75;;;4.20;;
66966;SDS011;53900;51.468;-2.586;2022-12-07T13:30:15;11.88;;;3.65;;
66966;SDS011;53900;51.468;-2.586;2022-12-07T13:32:43;9.57;;;3.92;;
66966;SDS011;53900;51.468;-2.586;2022-12-07T13:37:58;15.90;;;3.65;;
66966;SDS011;53900;51.468;-2.586;2022-12-07T13:40:24;9.57;;;3.45;;
66966;SDS011;53900;51.468;-2.586;2022-12-07T13:43:02;18.33;;;3.67;;
66966;SDS011;53900;51.468;-2.586;2022-12-07T13:45:30;8.65;;;2.92;;
66966;SDS011;53900;51.468;-2.586;2022-12-07T13:48:16;9.38;;;3.47;;
66966;SDS011;53900;51.468;-2.586;2022-12-07T13:50:53;6.75;;;3.22;;
66966;SDS011;53900;51.468;-2.586;2022-12-07T13:53:21;9.18;;;3.50;;
66966;SDS011;53900;51.468;-2.586;2022-12-07T13:55:47;10.45;;;3.42;;
66966;SDS011;53900;51.468;-2.586;2022-12-07T13:58:13;7.63;;;2.80;;
66966;SDS011;53900;51.468;-2.586;2022-12-07T14:00:39;7.22;;;2.85;;
66966;SDS011;53900;51.468;-2.586;2022-12-07T14:05:36;8.70;;;2.53;;
66966;SDS011;53900;51.468;-2.586;2022-12-07T14:08:21;8.15;;;2.45;;
66966;SDS011;53900;51.468;-2.586;2022-12-07T14:15:49;7.80;;;2.08;;
66966;SDS011;53900;51.468;-2.586;2022-12-07T14:18:25;6.47;;;2.95;;
66966;SDS011;53900;51.468;-2.586;2022-12-07T14:20:52;8.60;;;2.60;;
66966;SDS011;53900;51.468;-2.586;2022-12-07T14:23:28;8.45;;;2.20;;
66966;SDS011;53900;51.468;-2.586;2022-12-07T14:25:54;13.55;;;2.35;;
66966;SDS011;53900;51.468;-2.586;2022-12-07T14:28:29;8.75;;;2.35;;
66966;SDS011;53900;51.468;-2.586;2022-12-07T14:30:56;9.48;;;2.25;;
66966;SDS011;53900;51.468;-2.586;2022-12-07T14:33:22;12.50;;;2.53;;
66966;SDS011;53900;51.468;-2.586;2022-12-07T14:35:49;3.95;;;2.05;;
66966;SDS011;53900;51.468;-2.586;2022-12-07T14:38:14;8.90;;;2.60;;
66966;SDS011;53900;51.468;-2.586;2022-12-07T14:40:40;7.32;;;2.45;;
66966;SDS011;53900;51.468;-2.586;2022-12-07T14:43:08;5.15;;;2.17;;
66966;SDS011;53900;51.468;-2.586;2022-12-07T14:45:34;5.93;;;2.60;;
66966;SDS011;53900;51.468;-2.586;2022-12-07T14:47:59;5.65;;;2.05;;
66966;SDS011;53900;51.468;-2.586;2022-12-07T14:50:25;9.43;;;2.50;;
66966;SDS011;53900;51.468;-2.586;2022-12-07T14:52:59;7.07;;;2.60;;
66966;SDS011;53900;51.468;-2.586;2022-12-07T14:55:26;9.18;;;3.05;;
66966;SDS011;53900;51.468;-2.586;2022-12-07T14:57:52;9.48;;;2.72;;
66966;SDS011;53900;51.468;-2.586;2022-12-07T15:00:18;4.47;;;1.85;;
66966;SDS011;53900;51.468;-2.586;2022-12-07T15:02:45;7.25;;;2.38;;
66966;SDS011;53900;51.468;-2.586;2022-12-07T15:05:11;4.85;;;2.40;;
66966;SDS011;53900;51.468;-2.586;2022-12-07T15:07:36;5.85;;;2.65;;
66966;SDS011;53900;51.468;-2.586;2022-12-07T15:10:02;13.07;;;2.67;;
66966;SDS011;53900;51.468;-2.586;2022-12-07T15:12:28;13.07;;;2.55;;
66966;SDS011;53900;51.468;-2.586;2022-12-07T15:14:53;8.63;;;2.80;;
66966;SDS011;53900;51.468;-2.586;2022-12-07T15:17:18;12.68;;;3.63;;
66966;SDS011;53900;51.468;-2.586;2022-12-07T15:19:44;10.50;;;3.50;;
66966;SDS011;53900;51.468;-2.586;2022-12-07T15:22:09;6.68;;;3.08;;
66966;SDS011;53900;51.468;-2.586;2022-12-07T15:24:36;7.03;;;2.70;;
66966;SDS011;53900;51.468;-2.586;2022-12-07T15:27:02;5.60;;;2.70;;
66966;SDS011;53900;51.468;-2.586;2022-12-07T15:29:27;9.88;;;3.00;;
66966;SDS011;53900;51.468;-2.586;2022-12-07T15:31:52;9.02;;;2.83;;
66966;SDS011;53900;51.468;-2.586;2022-12-07T15:34:18;8.88;;;3.15;;
66966;SDS011;53900;51.468;-2.586;2022-12-07T15:36:43;14.20;;;3.10;;
66966;SDS011;53900;51.468;-2.586;2022-12-07T15:39:09;9.20;;;3.25;;
66966;SDS011;53900;51.468;-2.586;2022-12-07T15:41:35;7.35;;;2.83;;
66966;SDS011;53900;51.468;-2.586;2022-12-07T15:44:00;6.43;;;3.30;;
66966;SDS011;53900;51.468;-2.586;2022-12-07T15:46:44;8.13;;;2.80;;
66966;SDS011;53900;51.468;-2.586;2022-12-07T15:49:14;11.07;;;3.28;;
66966;SDS011;53900;51.468;-2.586;2022-12-07T15:51:41;9.25;;;4.03;;
66966;SDS011;53900;51.468;-2.586;2022-12-07T15:54:07;9.63;;;3.60;;
66966;SDS011;53900;51.468;-2.586;2022-12-07T15:56:33;12.95;;;5.78;;
66966;SDS011;53900;51.468;-2.586;2022-12-07T15:58:59;8.98;;;3.60;;
66966;SDS011;53900;51.468;-2.586;2022-12-07T16:01:24;14.20;;;4.20;;
66966;SDS011;53900;51.468;-2.586;2022-12-07T16:03:49;18.88;;;4.78;;
66966;SDS011;53900;51.468;-2.586;2022-12-07T16:06:15;11.35;;;4.10;;
66966;SDS011;53900;51.468;-2.586;2022-12-07T16:08:45;12.90;;;4.43;;
66966;SDS011;53900;51.468;-2.586;2022-12-07T16:11:11;10.32;;;3.83;;
66966;SDS011;53900;51.468;-2.586;2022-12-07T16:13:37;14.23;;;4.18;;
66966;SDS011;53900;51.468;-2.586;2022-12-07T16:16:03;37.28;;;6.80;;
66966;SDS011;53900;51.468;-2.586;2022-12-07T16:18:33;20.13;;;5.40;;